sensor_id;sensor_type;location;lat;lon;timestamp;temperature;humidity
29281;DHT22;25048;49.590;11.026;2023-06-14T00:01:37;13.90;99.90
29281;DHT22;25048;49.590;11.026;2023-06-14T00:04:04;13.90;99.90
29281;DHT22;25048;49.590;11.026;2023-06-14T00:06:34;13.80;99.90
29281;DHT22;25048;49.590;11.026;2023-06-14T00:09:01;13.80;99.90
29281;DHT22;25048;49.590;11.026;2023-06-14T00:11:29;13.70;99.90
29281;DHT22;25048;49.590;11.026;2023-06-14T00:13:57;13.70;99.90
29281;DHT22;25048;49.590;11.026;2023-06-14T00:16:25;13.70;99.90
29281;DHT22;25048;49.590;11.026;2023-06-14T00:18:52;13.60;99.90
29281;DHT22;25048;49.590;11.026;2023-06-14T00:21:19;13.70;99.90
29281;DHT22;25048;49.590;11.026;2023-06-14T00:23:47;13.60;99.90
29281;DHT22;25048;49.590;11.026;2023-06-14T00:26:15;13.70;99.90
29281;DHT22;25048;49.590;11.026;2023-06-14T00:28:42;13.70;99.90
29281;DHT22;25048;49.590;11.026;2023-06-14T00:31:10;13.60;99.90
29281;DHT22;25048;49.590;11.026;2023-06-14T00:33:37;13.60;99.90
29281;DHT22;25048;49.590;11.026;2023-06-14T00:36:05;13.60;99.90
29281;DHT22;25048;49.590;11.026;2023-06-14T00:38:33;13.50;99.90
29281;DHT22;25048;49.590;11.026;2023-06-14T00:41:00;13.40;99.90
29281;DHT22;25048;49.590;11.026;2023-06-14T00:43:28;13.40;99.90
29281;DHT22;25048;49.590;11.026;2023-06-14T00:45:55;13.30;99.90
29281;DHT22;25048;49.590;11.026;2023-06-14T00:48:23;13.30;99.90
29281;DHT22;25048;49.590;11.026;2023-06-14T00:50:52;13.20;99.90
29281;DHT22;25048;49.590;11.026;2023-06-14T00:53:19;13.20;99.90
29281;DHT22;25048;49.590;11.026;2023-06-14T00:55:49;13.10;99.90
29281;DHT22;25048;49.590;11.026;2023-06-14T00:58:17;13.00;99.90
29281;DHT22;25048;49.590;11.026;2023-06-14T01:00:45;12.90;99.90
29281;DHT22;25048;49.590;11.026;2023-06-14T01:03:13;12.80;99.90
29281;DHT22;25048;49.590;11.026;2023-06-14T01:05:42;12.80;99.90
29281;DHT22;25048;49.590;11.026;2023-06-14T01:11:12;12.70;99.90
29281;DHT22;25048;49.590;11.026;2023-06-14T01:13:40;12.60;99.90
29281;DHT22;25048;49.590;11.026;2023-06-14T01:16:08;12.60;99.90
29281;DHT22;25048;49.590;11.026;2023-06-14T01:18:37;12.50;99.90
29281;DHT22;25048;49.590;11.026;2023-06-14T01:21:05;12.50;99.90
29281;DHT22;25048;49.590;11.026;2023-06-14T01:23:33;12.40;99.90
29281;DHT22;25048;49.590;11.026;2023-06-14T01:26:01;12.30;99.90
29281;DHT22;25048;49.590;11.026;2023-06-14T01:28:33;12.30;99.90
29281;DHT22;25048;49.590;11.026;2023-06-14T01:31:03;12.20;99.90
29281;DHT22;25048;49.590;11.026;2023-06-14T01:33:31;12.20;99.90
29281;DHT22;25048;49.590;11.026;2023-06-14T01:36:00;12.10;99.90
29281;DHT22;25048;49.590;11.026;2023-06-14T01:38:30;12.10;99.90
29281;DHT22;25048;49.590;11.026;2023-06-14T01:40:58;12.10;99.90
29281;DHT22;25048;49.590;11.026;2023-06-14T01:43:30;12.00;99.90
29281;DHT22;25048;49.590;11.026;2023-06-14T01:45:58;12.00;99.90
29281;DHT22;25048;49.590;11.026;2023-06-14T01:48:27;11.90;99.90
29281;DHT22;25048;49.590;11.026;2023-06-14T01:50:55;11.80;99.90
29281;DHT22;25048;49.590;11.026;2023-06-14T01:53:22;11.70;99.90
29281;DHT22;25048;49.590;11.026;2023-06-14T01:55:50;11.60;99.90
29281;DHT22;25048;49.590;11.026;2023-06-14T01:58:19;11.50;99.90
29281;DHT22;25048;49.590;11.026;2023-06-14T02:00:47;11.40;99.90
29281;DHT22;25048;49.590;11.026;2023-06-14T02:03:15;11.30;99.90
29281;DHT22;25048;49.590;11.026;2023-06-14T02:05:43;11.30;99.90
29281;DHT22;25048;49.590;11.026;2023-06-14T02:08:11;11.20;99.90
29281;DHT22;25048;49.590;11.026;2023-06-14T02:10:38;11.10;99.90
29281;DHT22;25048;49.590;11.026;2023-06-14T02:13:06;11.10;99.90
29281;DHT22;25048;49.590;11.026;2023-06-14T02:15:33;11.00;99.90
29281;DHT22;25048;49.590;11.026;2023-06-14T02:18:02;10.90;99.90
29281;DHT22;25048;49.590;11.026;2023-06-14T02:20:30;10.90;99.90
29281;DHT22;25048;49.590;11.026;2023-06-14T02:22:58;10.80;99.90
29281;DHT22;25048;49.590;11.026;2023-06-14T02:25:25;10.80;99.90
29281;DHT22;25048;49.590;11.026;2023-06-14T02:27:55;10.80;99.90
29281;DHT22;25048;49.590;11.026;2023-06-14T02:30:22;10.70;99.90
29281;DHT22;25048;49.590;11.026;2023-06-14T02:32:50;10.70;99.90
29281;DHT22;25048;49.590;11.026;2023-06-14T02:35:19;10.70;99.90
29281;DHT22;25048;49.590;11.026;2023-06-14T02:37:48;10.60;99.90
29281;DHT22;25048;49.590;11.026;2023-06-14T02:40:18;10.60;99.90
29281;DHT22;25048;49.590;11.026;2023-06-14T02:42:45;10.50;99.90
29281;DHT22;25048;49.590;11.026;2023-06-14T02:45:13;10.50;99.90
29281;DHT22;25048;49.590;11.026;2023-06-14T02:47:40;10.40;99.90
29281;DHT22;25048;49.590;11.026;2023-06-14T02:50:08;10.40;99.90
29281;DHT22;25048;49.590;11.026;2023-06-14T02:52:36;10.40;99.90
29281;DHT22;25048;49.590;11.026;2023-06-14T02:55:04;10.40;99.90
29281;DHT22;25048;49.590;11.026;2023-06-14T02:57:32;10.40;99.90
29281;DHT22;25048;49.590;11.026;2023-06-14T03:00:00;10.30;99.90
29281;DHT22;25048;49.590;11.026;2023-06-14T03:02:27;10.30;99.90
29281;DHT22;25048;49.590;11.026;2023-06-14T03:04:55;10.30;99.90
29281;DHT22;25048;49.590;11.026;2023-06-14T03:07:22;10.30;99.90
29281;DHT22;25048;49.590;11.026;2023-06-14T03:09:51;10.30;99.90
29281;DHT22;25048;49.590;11.026;2023-06-14T03:12:19;10.30;99.90
29281;DHT22;25048;49.590;11.026;2023-06-14T03:14:47;10.20;99.90
29281;DHT22;25048;49.590;11.026;2023-06-14T03:17:15;10.20;99.90
29281;DHT22;25048;49.590;11.026;2023-06-14T03:19:44;10.20;99.90
29281;DHT22;25048;49.590;11.026;2023-06-14T03:22:11;10.20;99.90
29281;DHT22;25048;49.590;11.026;2023-06-14T03:24:39;10.20;99.90
29281;DHT22;25048;49.590;11.026;2023-06-14T03:27:07;10.20;99.90
29281;DHT22;25048;49.590;11.026;2023-06-14T03:29:36;10.20;99.90
29281;DHT22;25048;49.590;11.026;2023-06-14T03:32:04;10.20;99.90
29281;DHT22;25048;49.590;11.026;2023-06-14T03:34:31;10.20;99.90
29281;DHT22;25048;49.590;11.026;2023-06-14T03:36:59;10.20;99.90
29281;DHT22;25048;49.590;11.026;2023-06-14T03:39:26;10.20;99.90
29281;DHT22;25048;49.590;11.026;2023-06-14T03:41:54;10.20;99.90
29281;DHT22;25048;49.590;11.026;2023-06-14T03:44:21;10.20;99.90
29281;DHT22;25048;49.590;11.026;2023-06-14T03:46:49;10.10;99.90
29281;DHT22;25048;49.590;11.026;2023-06-14T03:49:16;10.20;99.90
29281;DHT22;25048;49.590;11.026;2023-06-14T03:51:44;10.10;99.90
29281;DHT22;25048;49.590;11.026;2023-06-14T03:54:13;10.10;99.90
29281;DHT22;25048;49.590;11.026;2023-06-14T03:56:41;10.10;99.90
29281;DHT22;25048;49.590;11.026;2023-06-14T03:59:08;10.10;99.90
29281;DHT22;25048;49.590;11.026;2023-06-14T04:01:36;10.10;99.90
29281;DHT22;25048;49.590;11.026;2023-06-14T04:04:04;10.10;99.90
29281;DHT22;25048;49.590;11.026;2023-06-14T04:06:31;10.20;99.90
29281;DHT22;25048;49.590;11.026;2023-06-14T04:09:00;10.20;99.90
29281;DHT22;25048;49.590;11.026;2023-06-14T04:11:30;10.20;99.90
29281;DHT22;25048;49.590;11.026;2023-06-14T04:13:58;10.20;99.90
29281;DHT22;25048;49.590;11.026;2023-06-14T04:16:26;10.30;99.90
29281;DHT22;25048;49.590;11.026;2023-06-14T04:18:55;10.30;99.90
29281;DHT22;25048;49.590;11.026;2023-06-14T04:21:24;10.40;99.90
29281;DHT22;25048;49.590;11.026;2023-06-14T04:23:53;10.40;99.90
29281;DHT22;25048;49.590;11.026;2023-06-14T04:26:22;10.50;99.90
29281;DHT22;25048;49.590;11.026;2023-06-14T04:28:54;10.50;99.90
29281;DHT22;25048;49.590;11.026;2023-06-14T04:31:23;10.60;99.90
29281;DHT22;25048;49.590;11.026;2023-06-14T04:33:56;10.60;99.90
29281;DHT22;25048;49.590;11.026;2023-06-14T04:36:25;10.60;99.90
29281;DHT22;25048;49.590;11.026;2023-06-14T04:38:54;10.70;99.90
29281;DHT22;25048;49.590;11.026;2023-06-14T04:41:22;10.80;99.90
29281;DHT22;25048;49.590;11.026;2023-06-14T04:43:51;10.90;99.90
29281;DHT22;25048;49.590;11.026;2023-06-14T04:46:19;11.00;99.90
29281;DHT22;25048;49.590;11.026;2023-06-14T04:48:48;11.20;99.90
29281;DHT22;25048;49.590;11.026;2023-06-14T04:51:16;11.40;99.90
29281;DHT22;25048;49.590;11.026;2023-06-14T04:53:46;11.60;99.90
29281;DHT22;25048;49.590;11.026;2023-06-14T04:56:13;11.90;99.90
29281;DHT22;25048;49.590;11.026;2023-06-14T04:58:41;12.10;99.90
29281;DHT22;25048;49.590;11.026;2023-06-14T05:01:08;12.40;99.90
29281;DHT22;25048;49.590;11.026;2023-06-14T05:03:36;12.60;99.90
29281;DHT22;25048;49.590;11.026;2023-06-14T05:06:04;12.80;99.90
29281;DHT22;25048;49.590;11.026;2023-06-14T05:08:32;13.00;99.90
29281;DHT22;25048;49.590;11.026;2023-06-14T05:11:00;13.20;99.90
29281;DHT22;25048;49.590;11.026;2023-06-14T05:13:27;13.40;99.90
29281;DHT22;25048;49.590;11.026;2023-06-14T05:15:55;13.60;99.90
29281;DHT22;25048;49.590;11.026;2023-06-14T05:18:22;13.80;99.90
29281;DHT22;25048;49.590;11.026;2023-06-14T05:20:51;14.00;99.90
29281;DHT22;25048;49.590;11.026;2023-06-14T05:23:19;14.20;99.90
29281;DHT22;25048;49.590;11.026;2023-06-14T05:25:47;14.40;99.90
29281;DHT22;25048;49.590;11.026;2023-06-14T05:28:15;14.70;99.90
29281;DHT22;25048;49.590;11.026;2023-06-14T05:30:42;14.90;99.90
29281;DHT22;25048;49.590;11.026;2023-06-14T05:33:10;15.10;99.90
29281;DHT22;25048;49.590;11.026;2023-06-14T05:35:37;15.20;99.90
29281;DHT22;25048;49.590;11.026;2023-06-14T05:38:05;15.40;99.90
29281;DHT22;25048;49.590;11.026;2023-06-14T05:40:34;15.50;99.90
29281;DHT22;25048;49.590;11.026;2023-06-14T05:43:01;15.60;99.90
29281;DHT22;25048;49.590;11.026;2023-06-14T05:45:29;15.90;99.90
29281;DHT22;25048;49.590;11.026;2023-06-14T05:47:56;16.00;99.90
29281;DHT22;25048;49.590;11.026;2023-06-14T05:50:24;16.00;99.90
29281;DHT22;25048;49.590;11.026;2023-06-14T05:52:52;16.00;99.90
29281;DHT22;25048;49.590;11.026;2023-06-14T05:55:20;16.00;99.90
29281;DHT22;25048;49.590;11.026;2023-06-14T05:57:48;16.10;99.90
29281;DHT22;25048;49.590;11.026;2023-06-14T06:00:16;16.10;99.90
29281;DHT22;25048;49.590;11.026;2023-06-14T06:02:45;16.20;99.90
29281;DHT22;25048;49.590;11.026;2023-06-14T06:05:14;16.30;99.90
29281;DHT22;25048;49.590;11.026;2023-06-14T06:07:44;16.50;99.90
29281;DHT22;25048;49.590;11.026;2023-06-14T06:10:12;16.70;99.90
29281;DHT22;25048;49.590;11.026;2023-06-14T06:12:41;16.90;99.90
29281;DHT22;25048;49.590;11.026;2023-06-14T06:15:09;17.30;99.90
29281;DHT22;25048;49.590;11.026;2023-06-14T06:17:39;17.60;99.90
29281;DHT22;25048;49.590;11.026;2023-06-14T06:20:07;17.70;99.90
29281;DHT22;25048;49.590;11.026;2023-06-14T06:22:36;17.70;99.90
29281;DHT22;25048;49.590;11.026;2023-06-14T06:25:03;17.70;99.90
29281;DHT22;25048;49.590;11.026;2023-06-14T06:27:31;17.80;99.90
29281;DHT22;25048;49.590;11.026;2023-06-14T06:29:59;17.80;99.90
29281;DHT22;25048;49.590;11.026;2023-06-14T06:32:26;17.80;99.90
29281;DHT22;25048;49.590;11.026;2023-06-14T06:34:53;17.90;99.90
29281;DHT22;25048;49.590;11.026;2023-06-14T06:37:21;18.20;99.90
29281;DHT22;25048;49.590;11.026;2023-06-14T06:39:48;18.50;99.90
29281;DHT22;25048;49.590;11.026;2023-06-14T06:42:16;18.60;99.90
29281;DHT22;25048;49.590;11.026;2023-06-14T06:44:43;18.80;99.90
29281;DHT22;25048;49.590;11.026;2023-06-14T06:47:11;18.80;99.90
29281;DHT22;25048;49.590;11.026;2023-06-14T06:49:39;19.10;99.90
29281;DHT22;25048;49.590;11.026;2023-06-14T06:52:07;19.40;99.90
29281;DHT22;25048;49.590;11.026;2023-06-14T06:54:35;19.70;99.90
29281;DHT22;25048;49.590;11.026;2023-06-14T06:57:02;20.00;99.90
29281;DHT22;25048;49.590;11.026;2023-06-14T06:59:30;20.30;99.90
29281;DHT22;25048;49.590;11.026;2023-06-14T07:01:58;20.50;99.90
29281;DHT22;25048;49.590;11.026;2023-06-14T07:04:25;20.60;99.90
29281;DHT22;25048;49.590;11.026;2023-06-14T07:06:53;20.70;99.90
29281;DHT22;25048;49.590;11.026;2023-06-14T07:09:20;20.80;99.90
29281;DHT22;25048;49.590;11.026;2023-06-14T07:11:49;20.70;99.90
29281;DHT22;25048;49.590;11.026;2023-06-14T07:14:16;20.50;99.90
29281;DHT22;25048;49.590;11.026;2023-06-14T07:16:44;20.40;99.90
29281;DHT22;25048;49.590;11.026;2023-06-14T07:19:13;20.50;99.90
29281;DHT22;25048;49.590;11.026;2023-06-14T07:21:40;20.60;99.90
29281;DHT22;25048;49.590;11.026;2023-06-14T07:24:08;20.70;99.90
29281;DHT22;25048;49.590;11.026;2023-06-14T07:26:35;20.90;99.90
29281;DHT22;25048;49.590;11.026;2023-06-14T07:29:03;21.10;98.60
29281;DHT22;25048;49.590;11.026;2023-06-14T07:31:31;21.10;98.60
29281;DHT22;25048;49.590;11.026;2023-06-14T07:33:58;21.20;99.30
29281;DHT22;25048;49.590;11.026;2023-06-14T07:36:26;21.10;98.30
29281;DHT22;25048;49.590;11.026;2023-06-14T07:38:53;20.90;98.20
29281;DHT22;25048;49.590;11.026;2023-06-14T07:41:21;20.60;98.10
29281;DHT22;25048;49.590;11.026;2023-06-14T07:43:48;20.40;98.40
29281;DHT22;25048;49.590;11.026;2023-06-14T07:46:16;20.20;98.20
29281;DHT22;25048;49.590;11.026;2023-06-14T07:48:43;20.30;98.40
29281;DHT22;25048;49.590;11.026;2023-06-14T07:51:11;20.60;99.90
29281;DHT22;25048;49.590;11.026;2023-06-14T07:53:39;20.90;98.60
29281;DHT22;25048;49.590;11.026;2023-06-14T07:56:07;21.30;98.40
29281;DHT22;25048;49.590;11.026;2023-06-14T07:58:34;21.60;97.20
29281;DHT22;25048;49.590;11.026;2023-06-14T08:01:02;21.80;96.20
29281;DHT22;25048;49.590;11.026;2023-06-14T08:03:32;22.10;96.00
29281;DHT22;25048;49.590;11.026;2023-06-14T08:05:59;22.30;95.50
29281;DHT22;25048;49.590;11.026;2023-06-14T08:08:27;22.50;94.80
29281;DHT22;25048;49.590;11.026;2023-06-14T08:10:55;22.50;93.50
29281;DHT22;25048;49.590;11.026;2023-06-14T08:13:22;22.40;93.10
29281;DHT22;25048;49.590;11.026;2023-06-14T08:15:50;22.60;93.50
29281;DHT22;25048;49.590;11.026;2023-06-14T08:18:18;22.70;94.50
29281;DHT22;25048;49.590;11.026;2023-06-14T08:20:45;22.60;93.70
29281;DHT22;25048;49.590;11.026;2023-06-14T08:23:13;22.50;93.30
29281;DHT22;25048;49.590;11.026;2023-06-14T08:25:40;22.60;93.40
29281;DHT22;25048;49.590;11.026;2023-06-14T08:28:08;22.50;93.40
29281;DHT22;25048;49.590;11.026;2023-06-14T08:30:35;22.30;92.80
29281;DHT22;25048;49.590;11.026;2023-06-14T08:33:03;22.00;91.90
29281;DHT22;25048;49.590;11.026;2023-06-14T08:35:31;22.00;91.90
29281;DHT22;25048;49.590;11.026;2023-06-14T08:37:58;22.20;92.40
29281;DHT22;25048;49.590;11.026;2023-06-14T08:40:27;22.60;92.10
29281;DHT22;25048;49.590;11.026;2023-06-14T08:42:57;23.00;92.50
29281;DHT22;25048;49.590;11.026;2023-06-14T08:45:25;22.90;90.20
29281;DHT22;25048;49.590;11.026;2023-06-14T08:47:53;22.70;89.90
29281;DHT22;25048;49.590;11.026;2023-06-14T08:50:23;23.00;89.30
29281;DHT22;25048;49.590;11.026;2023-06-14T08:52:54;23.20;90.60
29281;DHT22;25048;49.590;11.026;2023-06-14T08:55:23;23.60;91.00
29281;DHT22;25048;49.590;11.026;2023-06-14T08:57:59;24.00;89.00
29281;DHT22;25048;49.590;11.026;2023-06-14T09:00:27;24.40;87.20
29281;DHT22;25048;49.590;11.026;2023-06-14T09:02:55;24.90;89.00
29281;DHT22;25048;49.590;11.026;2023-06-14T09:05:28;25.20;83.90
29281;DHT22;25048;49.590;11.026;2023-06-14T09:07:55;25.40;78.60
29281;DHT22;25048;49.590;11.026;2023-06-14T09:10:25;25.50;81.70
29281;DHT22;25048;49.590;11.026;2023-06-14T09:12:52;25.70;80.00
29281;DHT22;25048;49.590;11.026;2023-06-14T09:15:20;25.40;77.50
29281;DHT22;25048;49.590;11.026;2023-06-14T09:17:48;25.00;79.50
29281;DHT22;25048;49.590;11.026;2023-06-14T09:20:15;25.00;80.60
29281;DHT22;25048;49.590;11.026;2023-06-14T09:22:46;24.70;78.10
29281;DHT22;25048;49.590;11.026;2023-06-14T09:25:13;24.50;79.40
29281;DHT22;25048;49.590;11.026;2023-06-14T09:27:46;24.50;81.00
29281;DHT22;25048;49.590;11.026;2023-06-14T09:30:14;24.80;81.80
29281;DHT22;25048;49.590;11.026;2023-06-14T09:32:42;25.30;80.80
29281;DHT22;25048;49.590;11.026;2023-06-14T09:35:10;25.70;77.40
29281;DHT22;25048;49.590;11.026;2023-06-14T09:37:37;25.80;76.30
29281;DHT22;25048;49.590;11.026;2023-06-14T09:40:05;25.80;73.40
29281;DHT22;25048;49.590;11.026;2023-06-14T09:42:33;25.40;73.10
29281;DHT22;25048;49.590;11.026;2023-06-14T09:45:03;24.90;75.60
29281;DHT22;25048;49.590;11.026;2023-06-14T09:47:31;24.90;77.10
29281;DHT22;25048;49.590;11.026;2023-06-14T09:49:58;25.10;77.90
29281;DHT22;25048;49.590;11.026;2023-06-14T09:52:28;25.50;73.50
29281;DHT22;25048;49.590;11.026;2023-06-14T09:54:56;25.80;74.10
29281;DHT22;25048;49.590;11.026;2023-06-14T09:57:26;26.20;74.00
29281;DHT22;25048;49.590;11.026;2023-06-14T10:00:00;26.40;72.60
29281;DHT22;25048;49.590;11.026;2023-06-14T10:02:34;26.00;70.10
29281;DHT22;25048;49.590;11.026;2023-06-14T10:05:08;25.80;73.40
29281;DHT22;25048;49.590;11.026;2023-06-14T10:10:07;25.60;70.30
29281;DHT22;25048;49.590;11.026;2023-06-14T10:12:35;25.30;71.10
29281;DHT22;25048;49.590;11.026;2023-06-14T10:15:04;24.90;72.90
29281;DHT22;25048;49.590;11.026;2023-06-14T10:17:59;24.50;71.30
29281;DHT22;25048;49.590;11.026;2023-06-14T10:20:48;24.10;73.00
29281;DHT22;25048;49.590;11.026;2023-06-14T10:23:13;23.90;76.00
29281;DHT22;25048;49.590;11.026;2023-06-14T10:25:42;23.70;74.90
29281;DHT22;25048;49.590;11.026;2023-06-14T10:28:20;23.70;75.60
29281;DHT22;25048;49.590;11.026;2023-06-14T10:31:06;23.60;76.10
29281;DHT22;25048;49.590;11.026;2023-06-14T10:33:36;23.60;78.10
29281;DHT22;25048;49.590;11.026;2023-06-14T10:38:59;23.70;74.10
29281;DHT22;25048;49.590;11.026;2023-06-14T10:41:28;23.70;74.60
29281;DHT22;25048;49.590;11.026;2023-06-14T10:46:52;23.90;73.80
29281;DHT22;25048;49.590;11.026;2023-06-14T10:49:35;24.00;73.20
29281;DHT22;25048;49.590;11.026;2023-06-14T10:51:51;24.10;72.30
29281;DHT22;25048;49.590;11.026;2023-06-14T10:54:22;24.10;71.80
29281;DHT22;25048;49.590;11.026;2023-06-14T10:56:52;24.20;75.00
29281;DHT22;25048;49.590;11.026;2023-06-14T10:59:21;24.30;74.00
29281;DHT22;25048;49.590;11.026;2023-06-14T11:04:51;24.40;71.50
29281;DHT22;25048;49.590;11.026;2023-06-14T11:08:04;24.20;73.10
29281;DHT22;25048;49.590;11.026;2023-06-14T11:10:37;24.40;72.30
29281;DHT22;25048;49.590;11.026;2023-06-14T11:13:05;24.40;71.30
29281;DHT22;25048;49.590;11.026;2023-06-14T11:15:34;24.40;72.10
29281;DHT22;25048;49.590;11.026;2023-06-14T11:18:07;24.40;71.40
29281;DHT22;25048;49.590;11.026;2023-06-14T11:20:37;24.40;70.10
29281;DHT22;25048;49.590;11.026;2023-06-14T11:23:05;24.30;70.50
29281;DHT22;25048;49.590;11.026;2023-06-14T11:25:32;24.40;72.90
29281;DHT22;25048;49.590;11.026;2023-06-14T11:28:00;24.50;69.80
29281;DHT22;25048;49.590;11.026;2023-06-14T11:30:27;24.50;70.60
29281;DHT22;25048;49.590;11.026;2023-06-14T11:32:55;24.60;71.30
29281;DHT22;25048;49.590;11.026;2023-06-14T11:35:23;24.80;73.30
29281;DHT22;25048;49.590;11.026;2023-06-14T11:37:55;25.30;75.00
29281;DHT22;25048;49.590;11.026;2023-06-14T11:40:26;26.10;70.90
29281;DHT22;25048;49.590;11.026;2023-06-14T11:43:02;26.70;68.70
29281;DHT22;25048;49.590;11.026;2023-06-14T11:45:30;26.80;65.40
29281;DHT22;25048;49.590;11.026;2023-06-14T11:48:01;26.70;64.10
29281;DHT22;25048;49.590;11.026;2023-06-14T11:50:28;26.60;67.30
29281;DHT22;25048;49.590;11.026;2023-06-14T11:52:57;26.60;65.70
29281;DHT22;25048;49.590;11.026;2023-06-14T11:55:37;26.70;68.90
29281;DHT22;25048;49.590;11.026;2023-06-14T11:58:06;26.80;65.80
29281;DHT22;25048;49.590;11.026;2023-06-14T12:00:35;26.80;64.40
29281;DHT22;25048;49.590;11.026;2023-06-14T12:03:03;26.70;65.50
29281;DHT22;25048;49.590;11.026;2023-06-14T12:05:32;26.80;65.40
29281;DHT22;25048;49.590;11.026;2023-06-14T12:08:03;27.20;65.50
29281;DHT22;25048;49.590;11.026;2023-06-14T12:10:40;27.60;66.10
29281;DHT22;25048;49.590;11.026;2023-06-14T12:13:09;27.60;61.20
29281;DHT22;25048;49.590;11.026;2023-06-14T12:15:37;27.60;63.50
29281;DHT22;25048;49.590;11.026;2023-06-14T12:18:08;27.70;63.40
29281;DHT22;25048;49.590;11.026;2023-06-14T12:20:39;28.00;63.20
29281;DHT22;25048;49.590;11.026;2023-06-14T12:23:07;27.90;64.20
29281;DHT22;25048;49.590;11.026;2023-06-14T12:25:36;27.60;62.50
29281;DHT22;25048;49.590;11.026;2023-06-14T12:28:05;27.70;65.00
29281;DHT22;25048;49.590;11.026;2023-06-14T12:30:34;28.20;62.20
29281;DHT22;25048;49.590;11.026;2023-06-14T12:33:03;28.80;58.90
29281;DHT22;25048;49.590;11.026;2023-06-14T12:35:31;29.10;59.30
29281;DHT22;25048;49.590;11.026;2023-06-14T12:37:58;29.00;56.70
29281;DHT22;25048;49.590;11.026;2023-06-14T12:40:26;28.70;55.70
29281;DHT22;25048;49.590;11.026;2023-06-14T12:42:53;28.40;58.90
29281;DHT22;25048;49.590;11.026;2023-06-14T12:45:21;28.50;59.80
29281;DHT22;25048;49.590;11.026;2023-06-14T12:47:49;28.70;60.20
29281;DHT22;25048;49.590;11.026;2023-06-14T12:50:18;28.80;62.20
29281;DHT22;25048;49.590;11.026;2023-06-14T12:52:45;29.00;62.30
29281;DHT22;25048;49.590;11.026;2023-06-14T12:55:13;29.30;60.00
29281;DHT22;25048;49.590;11.026;2023-06-14T12:57:41;29.40;58.70
29281;DHT22;25048;49.590;11.026;2023-06-14T13:00:09;29.10;56.40
29281;DHT22;25048;49.590;11.026;2023-06-14T13:02:37;28.60;58.20
29281;DHT22;25048;49.590;11.026;2023-06-14T13:05:05;28.00;57.60
29281;DHT22;25048;49.590;11.026;2023-06-14T13:07:52;27.50;58.20
29281;DHT22;25048;49.590;11.026;2023-06-14T13:10:19;27.00;56.90
29281;DHT22;25048;49.590;11.026;2023-06-14T13:12:47;26.70;61.90
29281;DHT22;25048;49.590;11.026;2023-06-14T13:15:14;27.10;63.10
29281;DHT22;25048;49.590;11.026;2023-06-14T13:17:42;27.60;62.50
29281;DHT22;25048;49.590;11.026;2023-06-14T13:20:11;27.80;60.70
29281;DHT22;25048;49.590;11.026;2023-06-14T13:22:38;28.10;59.20
29281;DHT22;25048;49.590;11.026;2023-06-14T13:25:06;28.60;58.70
29281;DHT22;25048;49.590;11.026;2023-06-14T13:27:34;29.00;58.50
29281;DHT22;25048;49.590;11.026;2023-06-14T13:30:02;29.10;56.90
29281;DHT22;25048;49.590;11.026;2023-06-14T13:32:32;29.30;56.50
29281;DHT22;25048;49.590;11.026;2023-06-14T13:34:59;29.20;57.00
29281;DHT22;25048;49.590;11.026;2023-06-14T13:37:27;29.10;57.30
29281;DHT22;25048;49.590;11.026;2023-06-14T13:39:54;28.70;55.80
29281;DHT22;25048;49.590;11.026;2023-06-14T13:42:22;28.50;53.50
29281;DHT22;25048;49.590;11.026;2023-06-14T13:44:49;28.40;56.20
29281;DHT22;25048;49.590;11.026;2023-06-14T13:47:19;28.40;57.80
29281;DHT22;25048;49.590;11.026;2023-06-14T13:49:46;28.70;55.50
29281;DHT22;25048;49.590;11.026;2023-06-14T13:52:14;28.90;58.70
29281;DHT22;25048;49.590;11.026;2023-06-14T13:54:42;28.90;54.60
29281;DHT22;25048;49.590;11.026;2023-06-14T13:57:10;28.80;55.60
29281;DHT22;25048;49.590;11.026;2023-06-14T13:59:40;28.80;59.60
29281;DHT22;25048;49.590;11.026;2023-06-14T14:02:08;29.20;56.30
29281;DHT22;25048;49.590;11.026;2023-06-14T14:04:55;29.80;54.00
29281;DHT22;25048;49.590;11.026;2023-06-14T14:07:23;30.30;54.80
29281;DHT22;25048;49.590;11.026;2023-06-14T14:09:51;30.50;52.10
29281;DHT22;25048;49.590;11.026;2023-06-14T14:12:19;30.20;50.60
29281;DHT22;25048;49.590;11.026;2023-06-14T14:14:47;29.80;49.80
29281;DHT22;25048;49.590;11.026;2023-06-14T14:17:14;29.10;50.60
29281;DHT22;25048;49.590;11.026;2023-06-14T14:19:42;28.60;56.10
29281;DHT22;25048;49.590;11.026;2023-06-14T14:22:09;28.60;53.50
29281;DHT22;25048;49.590;11.026;2023-06-14T14:24:37;28.70;53.70
29281;DHT22;25048;49.590;11.026;2023-06-14T14:27:05;28.70;51.80
29281;DHT22;25048;49.590;11.026;2023-06-14T14:29:34;28.60;54.90
29281;DHT22;25048;49.590;11.026;2023-06-14T14:32:02;28.50;53.50
29281;DHT22;25048;49.590;11.026;2023-06-14T14:34:29;28.70;54.90
29281;DHT22;25048;49.590;11.026;2023-06-14T14:36:57;29.30;55.90
29281;DHT22;25048;49.590;11.026;2023-06-14T14:39:24;30.00;56.30
29281;DHT22;25048;49.590;11.026;2023-06-14T14:41:52;30.50;54.40
29281;DHT22;25048;49.590;11.026;2023-06-14T14:44:20;31.10;58.20
29281;DHT22;25048;49.590;11.026;2023-06-14T14:46:47;31.60;54.10
29281;DHT22;25048;49.590;11.026;2023-06-14T14:49:15;31.30;51.90
29281;DHT22;25048;49.590;11.026;2023-06-14T14:51:43;31.10;52.80
29281;DHT22;25048;49.590;11.026;2023-06-14T14:54:10;31.30;54.20
29281;DHT22;25048;49.590;11.026;2023-06-14T14:56:38;31.60;52.20
29281;DHT22;25048;49.590;11.026;2023-06-14T14:59:05;31.80;51.60
29281;DHT22;25048;49.590;11.026;2023-06-14T15:01:33;32.00;52.30
29281;DHT22;25048;49.590;11.026;2023-06-14T15:04:01;32.30;51.00
29281;DHT22;25048;49.590;11.026;2023-06-14T15:06:28;32.40;50.60
29281;DHT22;25048;49.590;11.026;2023-06-14T15:08:56;32.40;49.50
29281;DHT22;25048;49.590;11.026;2023-06-14T15:11:24;32.20;48.80
29281;DHT22;25048;49.590;11.026;2023-06-14T15:13:52;32.10;49.30
29281;DHT22;25048;49.590;11.026;2023-06-14T15:16:19;32.10;50.70
29281;DHT22;25048;49.590;11.026;2023-06-14T15:18:47;32.20;52.30
29281;DHT22;25048;49.590;11.026;2023-06-14T15:21:14;32.40;49.50
29281;DHT22;25048;49.590;11.026;2023-06-14T15:23:42;32.50;51.10
29281;DHT22;25048;49.590;11.026;2023-06-14T15:26:09;32.40;48.70
29281;DHT22;25048;49.590;11.026;2023-06-14T15:28:37;32.40;49.60
29281;DHT22;25048;49.590;11.026;2023-06-14T15:31:05;32.30;49.70
29281;DHT22;25048;49.590;11.026;2023-06-14T15:33:33;32.10;49.60
29281;DHT22;25048;49.590;11.026;2023-06-14T15:36:01;32.20;50.80
29281;DHT22;25048;49.590;11.026;2023-06-14T15:38:29;32.30;48.70